createdAt,value
2019-05-01T00:01:04.934Z,68.00
2019-05-01T00:03:56.515Z,68.00
2019-05-01T00:06:54.297Z,68.10
2019-05-01T00:09:41.644Z,68.50
2019-05-01T00:12:29.002Z,68.60
2019-05-01T00:15:18.509Z,69.30
2019-05-01T00:18:06.492Z,69.90
2019-05-01T00:20:53.775Z,69.90
2019-05-01T00:23:41.249Z,70.30
2019-05-01T00:26:29.083Z,69.90
2019-05-01T00:29:16.404Z,70.00
2019-05-01T00:32:03.790Z,70.40
2019-05-01T00:34:51.163Z,71.20
2019-05-01T00:37:38.559Z,71.80
2019-05-01T00:40:24.638Z,71.10
2019-05-01T00:43:11.788Z,71.80
2019-05-01T00:45:59.250Z,72.60
2019-05-01T00:48:46.653Z,73.00
2019-05-01T00:51:34.160Z,74.00
2019-05-01T00:54:21.357Z,74.60
2019-05-01T00:57:13.293Z,74.30
2019-05-01T01:00:14.346Z,74.50
2019-05-01T01:03:01.732Z,74.40
2019-05-01T01:05:48.876Z,75.30
2019-05-01T01:08:36.254Z,76.10
2019-05-01T01:11:23.622Z,77.30
2019-05-01T01:14:10.778Z,78.30
2019-05-01T01:16:58.097Z,77.90
2019-05-01T01:19:45.373Z,78.80
2019-05-01T01:22:32.654Z,79.00
2019-05-01T01:25:20.412Z,79.50
2019-05-01T01:28:07.647Z,80.00
2019-05-01T01:30:56.392Z,79.90
2019-05-01T01:33:43.494Z,79.50
2019-05-01T01:36:30.756Z,79.20
2019-05-01T01:39:18.187Z,78.90
2019-05-01T01:42:06.095Z,80.90
2019-05-01T01:44:54.739Z,80.90
2019-05-01T01:47:59.832Z,80.00
2019-05-01T01:50:47.734Z,79.90
2019-05-01T01:53:34.664Z,81.10
2019-05-01T01:56:22.380Z,81.20
2019-05-01T01:59:09.549Z,80.10
2019-05-01T02:01:58.241Z,80.50
2019-05-01T02:04:52.907Z,80.20
2019-05-01T02:07:40.327Z,80.30
2019-05-01T02:10:27.734Z,80.90
2019-05-01T02:13:15.571Z,80.80
2019-05-01T02:16:02.984Z,80.50
2019-05-01T02:18:50.125Z,81.30
2019-05-01T02:21:37.558Z,81.60
2019-05-01T02:24:25.207Z,82.80
2019-05-01T02:27:14.031Z,82.40
2019-05-01T02:30:03.112Z,82.60
2019-05-01T02:32:50.588Z,83.30
2019-05-01T02:35:39.240Z,83.80
2019-05-01T02:38:26.668Z,83.10
2019-05-01T02:41:15.718Z,83.20
2019-05-01T02:44:11.967Z,84.40
2019-05-01T02:47:02.529Z,83.00
2019-05-01T02:49:52.559Z,82.90
2019-05-01T02:52:41.473Z,85.20
2019-05-01T02:55:30.644Z,85.40
2019-05-01T02:58:18.448Z,85.50
2019-05-01T03:01:05.820Z,85.50
2019-05-01T03:03:53.873Z,83.90
2019-05-01T03:06:41.280Z,83.10
2019-05-01T03:09:29.105Z,84.80
2019-05-01T03:12:19.708Z,85.80
2019-05-01T03:15:08.439Z,85.20
2019-05-01T03:17:57.793Z,85.50
2019-05-01T03:20:49.770Z,86.30
2019-05-01T03:23:39.586Z,85.90
2019-05-01T03:26:27.077Z,85.70
2019-05-01T03:29:14.657Z,86.10
2019-05-01T03:32:16.658Z,86.90
2019-05-01T03:34:52.705Z,86.70
2019-05-01T03:37:39.668Z,86.20
2019-05-01T03:40:27.756Z,86.60
2019-05-01T03:43:15.233Z,86.60
2019-05-01T03:46:03.082Z,86.10
2019-05-01T03:48:50.501Z,86.30
2019-05-01T03:51:37.752Z,86.00
2019-05-01T03:54:24.838Z,86.20
2019-05-01T03:57:12.760Z,86.50
2019-05-01T04:00:01.154Z,87.00
2019-05-01T04:02:58.753Z,87.30
2019-05-01T04:05:46.177Z,86.30
2019-05-01T04:08:33.679Z,87.70
2019-05-01T04:11:21.569Z,87.90
2019-05-01T04:14:09.513Z,87.70
2019-05-01T04:16:59.384Z,87.80
2019-05-01T04:19:47.011Z,88.30
2019-05-01T04:22:34.216Z,88.40
2019-05-01T04:25:22.145Z,87.80
2019-05-01T04:28:26.058Z,87.10
2019-05-01T04:31:15.339Z,86.50
2019-05-01T04:34:22.655Z,86.00
2019-05-01T04:37:11.696Z,87.00
2019-05-01T04:39:58.561Z,86.10
2019-05-01T04:42:46.385Z,86.50
2019-05-01T04:45:33.835Z,86.90
2019-05-01T04:48:21.787Z,85.30
2019-05-01T04:51:09.421Z,85.10
2019-05-01T04:53:56.983Z,84.90
2019-05-01T04:56:44.623Z,85.10
2019-05-01T04:59:33.145Z,86.00
2019-05-01T05:02:22.461Z,86.40
2019-05-01T05:05:10.235Z,85.40
2019-05-01T05:07:57.506Z,85.10
2019-05-01T05:10:46.047Z,85.40
2019-05-01T05:13:46.707Z,85.80
2019-05-01T05:16:46.537Z,87.80
2019-05-01T05:19:34.363Z,87.40
2019-05-01T05:22:21.034Z,86.90
2019-05-01T05:25:08.545Z,85.90
2019-05-01T05:27:57.235Z,87.20
2019-05-01T05:30:45.550Z,87.40
2019-05-01T05:33:34.026Z,87.20
2019-05-01T05:36:23.547Z,86.20
2019-05-01T05:39:22.826Z,85.00
2019-05-01T05:42:10.571Z,85.00
2019-05-01T05:44:58.596Z,84.70
2019-05-01T05:47:45.773Z,84.50
2019-05-01T05:50:45.720Z,84.20
2019-05-01T05:53:40.163Z,84.00
2019-05-01T05:56:38.065Z,84.20
2019-05-01T05:59:29.960Z,84.10
2019-05-01T06:02:21.720Z,84.60
2019-05-01T06:05:26.065Z,83.40
2019-05-01T06:08:19.641Z,82.80
2019-05-01T06:11:29.729Z,83.20
2019-05-01T06:14:36.428Z,82.30
2019-05-01T06:17:43.820Z,82.20
2019-05-01T06:20:41.552Z,81.60
2019-05-01T06:23:34.146Z,81.30
2019-05-01T06:26:37.079Z,82.30
2019-05-01T06:29:20.688Z,81.20
2019-05-01T06:32:07.956Z,81.60
2019-05-01T06:34:58.444Z,80.40
2019-05-01T06:38:00.182Z,80.10
2019-05-01T06:40:58.223Z,79.80
2019-05-01T06:43:49.298Z,79.10
2019-05-01T06:46:50.219Z,78.80
2019-05-01T06:49:54.753Z,78.30
2019-05-01T06:52:42.743Z,78.10
2019-05-01T06:55:30.882Z,77.40
2019-05-01T06:58:20.487Z,77.30
2019-05-01T07:01:08.521Z,76.60
2019-05-01T07:04:03.435Z,76.20
2019-05-01T07:06:44.850Z,75.70
2019-05-01T07:09:33.437Z,75.40
2019-05-01T07:12:23.943Z,75.70
2019-05-01T07:15:13.225Z,75.10
2019-05-01T07:18:00.919Z,74.90
2019-05-01T07:20:51.574Z,75.10
2019-05-01T07:23:38.635Z,72.50
2019-05-01T07:26:26.101Z,72.20
2019-05-01T07:29:32.824Z,70.80
2019-05-01T07:32:19.565Z,69.70
2019-05-01T07:35:07.065Z,70.00
2019-05-01T07:37:57.566Z,69.60
2019-05-01T07:40:43.643Z,69.60
2019-05-01T07:43:49.576Z,68.00
2019-05-01T07:46:44.440Z,67.00
2019-05-01T07:49:54.753Z,65.20
2019-05-01T07:52:42.702Z,63.90
2019-05-01T07:55:36.023Z,62.30
2019-05-01T07:58:23.293Z,61.10
2019-05-01T08:01:28.830Z,60.10
2019-05-01T08:04:18.480Z,61.10
2019-05-01T08:07:06.687Z,58.00
2019-05-01T08:09:54.116Z,56.50
2019-05-01T08:12:41.800Z,56.70
2019-05-01T08:15:32.472Z,55.20
2019-05-01T08:18:24.035Z,55.80
2019-05-01T08:21:29.893Z,56.30
2019-05-01T08:24:22.468Z,52.50
2019-05-01T08:27:07.834Z,51.60
2019-05-01T08:29:56.767Z,50.20
2019-05-01T08:32:51.204Z,49.10
2019-05-01T08:35:38.651Z,48.10
2019-05-01T08:38:29.857Z,46.20
2019-05-01T08:41:14.978Z,45.20
2019-05-01T08:44:03.104Z,42.90
2019-05-01T08:47:01.872Z,44.30
2019-05-01T08:49:56.455Z,40.90
2019-05-01T08:52:47.353Z,40.30
2019-05-01T08:55:34.041Z,40.80
2019-05-01T08:58:21.143Z,41.00
2019-05-01T09:01:10.870Z,40.30
2019-05-01T09:03:57.226Z,40.80
2019-05-01T09:06:45.261Z,40.30
2019-05-01T09:09:33.424Z,39.70
2019-05-01T09:12:20.680Z,38.70
2019-05-01T09:15:12.692Z,37.30
2019-05-01T09:17:57.305Z,37.80
2019-05-01T09:20:46.910Z,37.80
2019-05-01T09:23:34.806Z,39.20
2019-05-01T09:26:45.395Z,37.30
2019-05-01T09:29:38.256Z,36.90
2019-05-01T09:32:25.620Z,37.50
2019-05-01T09:35:15.845Z,36.40
2019-05-01T09:38:02.917Z,36.70
2019-05-01T09:40:50.581Z,36.50
2019-05-01T09:43:38.545Z,36.50
2019-05-01T09:46:26.403Z,35.90
2019-05-01T09:49:18.256Z,36.60
2019-05-01T09:52:24.868Z,35.30
2019-05-01T09:55:17.866Z,36.40
2019-05-01T09:58:03.488Z,36.30
2019-05-01T10:00:53.847Z,35.20
2019-05-01T10:03:41.021Z,35.30
2019-05-01T10:06:28.319Z,35.10
2019-05-01T10:09:16.723Z,35.60
2019-05-01T10:12:04.846Z,35.20
2019-05-01T10:14:52.660Z,34.70
2019-05-01T10:17:40.179Z,32.50
2019-05-01T10:20:27.647Z,34.40
2019-05-01T10:23:15.131Z,35.30
2019-05-01T10:26:04.127Z,31.30
2019-05-01T10:29:05.449Z,30.60
2019-05-01T10:32:06.589Z,31.90
2019-05-01T10:34:56.842Z,29.40
2019-05-01T10:37:44.072Z,30.40
2019-05-01T10:40:32.443Z,29.80
2019-05-01T10:43:20.113Z,28.90
2019-05-01T10:46:07.292Z,29.00
2019-05-01T10:48:57.196Z,28.40
2019-05-01T10:51:43.437Z,28.30
2019-05-01T10:54:31.255Z,29.20
2019-05-01T10:57:18.772Z,28.30
2019-05-01T11:00:07.822Z,27.90
2019-05-01T11:02:54.663Z,28.20
2019-05-01T11:05:41.603Z,28.60
2019-05-01T11:08:29.001Z,25.50
2019-05-01T11:11:16.297Z,26.10
2019-05-01T11:14:03.895Z,26.80
2019-05-01T11:16:51.145Z,26.30
2019-05-01T11:19:38.087Z,26.50
2019-05-01T11:22:25.762Z,27.20
2019-05-01T11:25:14.585Z,26.90
2019-05-01T11:28:01.797Z,26.50
2019-05-01T11:30:49.229Z,26.80
2019-05-01T11:33:56.721Z,26.50
2019-05-01T11:36:55.474Z,27.30
2019-05-01T11:39:50.138Z,27.00
2019-05-01T11:42:37.388Z,27.10
2019-05-01T11:45:24.455Z,27.10
2019-05-01T11:48:11.811Z,27.70
2019-05-01T11:50:59.168Z,27.20
2019-05-01T11:53:46.684Z,27.10
2019-05-01T11:56:34.216Z,26.50
2019-05-01T11:59:21.537Z,27.60
2019-05-01T12:02:08.731Z,27.30
2019-05-01T12:04:55.917Z,27.40
2019-05-01T12:07:43.353Z,26.20
2019-05-01T12:10:30.340Z,26.10
2019-05-01T12:13:17.798Z,26.70
2019-05-01T12:16:09.719Z,25.70
2019-05-01T12:18:57.354Z,26.80
2019-05-01T12:21:44.980Z,27.50
2019-05-01T12:24:32.463Z,26.60
2019-05-01T12:27:19.980Z,27.10
2019-05-01T12:30:08.845Z,25.70
2019-05-01T12:32:56.057Z,27.30
2019-05-01T12:35:44.745Z,25.70
2019-05-01T12:38:32.292Z,26.40
2019-05-01T12:41:21.050Z,26.40
2019-05-01T12:44:08.329Z,25.80
2019-05-01T12:46:57.296Z,26.30
2019-05-01T12:49:46.143Z,27.00
2019-05-01T12:52:46.902Z,25.70
2019-05-01T12:55:35.612Z,24.90
2019-05-01T12:58:23.042Z,25.90
2019-05-01T13:01:10.346Z,25.90
2019-05-01T13:03:57.771Z,26.30
2019-05-01T13:06:49.489Z,26.50
2019-05-01T13:09:33.722Z,26.50
2019-05-01T13:12:20.996Z,24.60
2019-05-01T13:15:08.520Z,25.80
2019-05-01T13:17:55.781Z,24.90
2019-05-01T13:20:42.708Z,25.10
2019-05-01T13:23:30.738Z,25.60
2019-05-01T13:26:25.426Z,25.20
2019-05-01T13:29:17.411Z,24.80
2019-05-01T13:32:18.700Z,23.30
2019-05-01T13:35:07.148Z,24.80
2019-05-01T13:37:53.960Z,24.00
2019-05-01T13:40:41.903Z,22.60
2019-05-01T13:43:29.583Z,23.20
2019-05-01T13:46:17.192Z,22.30
2019-05-01T13:49:05.255Z,22.70
2019-05-01T13:51:52.745Z,23.00
2019-05-01T13:54:39.998Z,22.80
2019-05-01T13:57:27.324Z,22.50
2019-05-01T14:00:16.474Z,23.20
2019-05-01T14:03:04.272Z,22.50
2019-05-01T14:05:51.432Z,21.70
2019-05-01T14:08:38.847Z,20.90
2019-05-01T14:11:26.531Z,21.40
2019-05-01T14:14:13.914Z,22.90
2019-05-01T14:17:01.547Z,21.90
2019-05-01T14:19:50.436Z,21.60
2019-05-01T14:22:45.652Z,22.20
2019-05-01T14:25:50.950Z,20.80
2019-05-01T14:28:38.760Z,19.90
2019-05-01T14:31:26.022Z,21.00
2019-05-01T14:34:13.469Z,22.60
2019-05-01T14:37:01.004Z,20.50
2019-05-01T14:39:48.808Z,21.40
2019-05-01T14:42:36.122Z,22.20
2019-05-01T14:45:23.484Z,21.00
2019-05-01T14:48:11.518Z,20.70
2019-05-01T14:50:59.271Z,21.70
2019-05-01T14:53:47.138Z,20.60
2019-05-01T14:56:34.698Z,21.00
2019-05-01T14:59:22.272Z,21.80
2019-05-01T15:02:09.905Z,20.90
2019-05-01T15:04:57.520Z,20.60
2019-05-01T15:07:44.427Z,20.70
2019-05-01T15:10:32.184Z,20.10
2019-05-01T15:13:20.686Z,20.60
2019-05-01T15:16:09.525Z,21.00
2019-05-01T15:18:58.323Z,21.00
2019-05-01T15:21:46.023Z,21.20
2019-05-01T15:24:33.174Z,20.60
2019-05-01T15:27:20.406Z,20.60
2019-05-01T15:30:08.496Z,21.10
2019-05-01T15:32:55.500Z,20.80
2019-05-01T15:35:42.529Z,20.40
2019-05-01T15:38:29.831Z,20.00
2019-05-01T15:41:19.056Z,20.20
2019-05-01T15:44:20.435Z,19.60
2019-05-01T15:47:07.736Z,19.90
2019-05-01T15:49:56.055Z,21.00
2019-05-01T15:52:44.092Z,20.30
2019-05-01T15:55:31.639Z,19.90
2019-05-01T15:58:18.999Z,21.00
2019-05-01T16:01:06.721Z,21.10
2019-05-01T16:03:54.655Z,20.50
2019-05-01T16:06:42.070Z,20.50
2019-05-01T16:09:30.508Z,20.70
2019-05-01T16:12:31.475Z,20.40
2019-05-01T16:15:20.677Z,21.40
2019-05-01T16:18:08.358Z,20.80
2019-05-01T16:20:56.161Z,21.20
2019-05-01T16:23:44.373Z,21.90
2019-05-01T16:26:32.998Z,23.00
2019-05-01T16:29:21.871Z,23.60
2019-05-01T16:32:09.370Z,23.00
2019-05-01T16:34:56.704Z,21.90
2019-05-01T16:37:43.968Z,22.70
2019-05-01T16:40:48.965Z,23.10
2019-05-01T16:43:36.272Z,24.20
2019-05-01T16:46:23.792Z,24.50
2019-05-01T16:49:10.919Z,24.70
2019-05-01T16:51:58.165Z,25.50
2019-05-01T16:54:45.168Z,25.10
2019-05-01T16:57:33.155Z,25.30
2019-05-01T17:00:24.084Z,25.40
2019-05-01T17:03:13.406Z,25.90
2019-05-01T17:06:02.475Z,26.80
2019-05-01T17:08:57.340Z,27.10
2019-05-01T17:11:44.635Z,27.70
2019-05-01T17:14:32.420Z,26.90
2019-05-01T17:17:19.909Z,26.90
2019-05-01T17:20:07.568Z,26.80
2019-05-01T17:22:55.144Z,27.90
2019-05-01T17:25:42.966Z,28.50
2019-05-01T17:28:32.772Z,28.00
2019-05-01T17:31:19.542Z,28.40
2019-05-01T17:34:09.613Z,28.60
2019-05-01T17:36:55.591Z,28.20
2019-05-01T17:39:43.216Z,28.90
2019-05-01T17:42:33.061Z,29.70
2019-05-01T17:45:19.537Z,29.30
2019-05-01T17:48:06.813Z,29.20
2019-05-01T17:50:55.041Z,30.70
2019-05-01T17:53:42.864Z,30.70
2019-05-01T17:56:30.034Z,31.00
2019-05-01T17:59:17.353Z,31.70
2019-05-01T18:02:10.056Z,32.40
2019-05-01T18:04:56.671Z,32.50
2019-05-01T18:07:43.594Z,33.80
2019-05-01T18:10:34.101Z,34.60
2019-05-01T18:13:20.106Z,34.60
2019-05-01T18:16:07.714Z,35.50
2019-05-01T18:18:54.956Z,36.50
2019-05-01T18:21:46.609Z,36.00
2019-05-01T18:24:53.869Z,37.20
2019-05-01T18:27:44.798Z,39.20
2019-05-01T18:30:41.269Z,39.00
2019-05-01T18:33:29.595Z,40.70
2019-05-01T18:36:19.930Z,40.60
2019-05-01T18:39:16.891Z,41.80
2019-05-01T18:42:04.852Z,42.80
2019-05-01T18:44:52.267Z,47.60
2019-05-01T18:47:40.552Z,53.70
2019-05-01T18:50:29.588Z,54.90
2019-05-01T18:53:16.804Z,54.90
2019-05-01T18:56:05.724Z,53.60
2019-05-01T18:58:54.767Z,58.10
2019-05-01T19:01:43.812Z,61.00
2019-05-01T19:04:31.553Z,62.40
2019-05-01T19:07:19.336Z,64.70
2019-05-01T19:10:06.859Z,63.50
2019-05-01T19:12:54.283Z,64.80
2019-05-01T19:15:41.638Z,65.70
2019-05-01T19:18:28.823Z,65.90
2019-05-01T19:21:18.139Z,67.00
2019-05-01T19:24:06.000Z,65.30
2019-05-01T19:26:55.635Z,64.00
2019-05-01T19:29:43.920Z,63.60
2019-05-01T19:32:31.934Z,64.10
2019-05-01T19:35:23.696Z,64.50
2019-05-01T19:38:08.608Z,63.50
2019-05-01T19:40:55.913Z,65.40
2019-05-01T19:43:43.428Z,64.70
2019-05-01T19:46:30.831Z,65.90
2019-05-01T19:49:18.196Z,65.10
2019-05-01T19:52:05.681Z,64.50
2019-05-01T19:54:53.477Z,67.20
2019-05-01T19:57:40.908Z,66.40
2019-05-01T20:00:53.139Z,68.70
2019-05-01T20:03:40.814Z,70.00
2019-05-01T20:06:28.176Z,70.20
2019-05-01T20:09:15.616Z,68.20
2019-05-01T20:12:02.510Z,67.60
2019-05-01T20:14:49.996Z,67.60
2019-05-01T20:17:37.333Z,67.90
2019-05-01T20:20:24.822Z,68.10
2019-05-01T20:23:12.219Z,69.70
2019-05-01T20:25:59.484Z,71.20
2019-05-01T20:28:47.934Z,71.80
2019-05-01T20:31:36.407Z,70.80
2019-05-01T20:34:24.018Z,71.50
2019-05-01T20:37:11.392Z,72.20
2019-05-01T20:40:10.403Z,73.30
2019-05-01T20:42:48.465Z,73.60
2019-05-01T20:45:36.032Z,73.70
2019-05-01T20:48:25.184Z,70.90
2019-05-01T20:51:12.848Z,70.40
2019-05-01T20:54:00.134Z,72.10
2019-05-01T20:56:52.444Z,71.80
2019-05-01T20:59:40.549Z,72.00
2019-05-01T21:02:28.285Z,74.50
2019-05-01T21:05:17.410Z,73.90
2019-05-01T21:08:09.316Z,74.20
2019-05-01T21:10:58.806Z,75.00
2019-05-01T21:13:47.640Z,75.10
2019-05-01T21:16:37.934Z,74.50
2019-05-01T21:19:25.744Z,74.30
2019-05-01T21:22:14.250Z,74.90
2019-05-01T21:25:02.031Z,75.80
2019-05-01T21:27:49.301Z,76.10
2019-05-01T21:30:38.647Z,75.70
2019-05-01T21:33:25.196Z,76.40
2019-05-01T21:36:12.824Z,75.70
2019-05-01T21:38:59.999Z,75.90
2019-05-01T21:41:47.064Z,77.40
2019-05-01T21:44:34.650Z,78.50
2019-05-01T21:47:23.651Z,77.80
2019-05-01T21:50:13.190Z,76.90
2019-05-01T21:53:03.172Z,77.40
2019-05-01T21:55:49.440Z,77.80
2019-05-01T21:58:37.104Z,77.30
2019-05-01T22:01:24.713Z,76.80
2019-05-01T22:04:12.047Z,77.60
2019-05-01T22:06:59.399Z,78.00
2019-05-01T22:09:50.534Z,77.40
2019-05-01T22:12:35.650Z,77.90
2019-05-01T22:15:24.848Z,78.20
2019-05-01T22:18:16.231Z,78.00
2019-05-01T22:21:20.798Z,77.50
2019-05-01T22:24:21.942Z,78.20
2019-05-01T22:27:16.963Z,78.70
2019-05-01T22:30:10.857Z,78.60
2019-05-01T22:32:58.549Z,79.60
2019-05-01T22:35:47.068Z,79.50
2019-05-01T22:38:34.570Z,78.70
2019-05-01T22:41:22.078Z,79.40
2019-05-01T22:44:12.849Z,79.60
2019-05-01T22:46:58.423Z,79.40
2019-05-01T22:49:45.780Z,80.90
2019-05-01T22:52:33.055Z,81.50
2019-05-01T22:55:25.397Z,82.50
2019-05-01T22:58:09.381Z,83.10
2019-05-01T23:00:58.298Z,82.60
2019-05-01T23:03:46.934Z,83.20
2019-05-01T23:06:37.145Z,83.30
2019-05-01T23:09:28.483Z,82.80
2019-05-01T23:12:14.388Z,83.60
2019-05-01T23:15:03.595Z,83.70
2019-05-01T23:17:51.441Z,83.30
2019-05-01T23:20:39.408Z,83.10
2019-05-01T23:23:27.785Z,83.00
2019-05-01T23:26:16.642Z,82.70
2019-05-01T23:29:04.263Z,83.50
2019-05-01T23:31:51.414Z,83.50
2019-05-01T23:34:37.491Z,83.10
2019-05-01T23:37:26.092Z,83.10
2019-05-01T23:40:15.578Z,83.20
2019-05-01T23:43:02.574Z,83.00
2019-05-01T23:45:49.824Z,83.30
2019-05-01T23:48:37.075Z,84.50
2019-05-01T23:51:28.662Z,85.20
2019-05-01T23:54:13.636Z,85.00
2019-05-01T23:57:00.867Z,84.90
2019-05-01T23:59:48.310Z,84.30
